Startpagina
METAR-TAF:

METAR-TAF

Vliegvelden :

Sharjah International Airport

Sharjah, Verenigde Arabische Emiraten

breedte: 25-20N, lengte: 055-31E, hoogte: 35 m

Actueel weer

Dit bericht is 1 uur en het 0 minuten geleden gemaakt, om 23:00 UTC
Wind 2 kt uit het oostzuidoosten
Temperatuur 19°C
Vochtigheid 94%
Druk 1015 hPa
Zicht: 4000 m
nevel

METAR: OMSJ 232300Z 11002KT 4000 BR NSC 19/18 Q1015 NOSIG

Tijdstip: 04:00 (00:00 UTC)

Verwachting

Dit bericht is 1 uur en het 4 minuten geleden gemaakt, om 22:56 UTC
Verwachting geldig van 24 om 00 UTC tot 25 om 06 UTC
Wind 5 kt uit het oosten
Zicht: 4000 m
nevel
Wijzigt naar
van 24 om 05 UTC tot 24 om 07 UTC
Zicht: 8000 m
Wijzigt naar
van 24 om 09 UTC tot 24 om 11 UTC
Wind 10 kt uit het noorden
Wijzigt naar
van 24 om 15 UTC tot 24 om 17 UTC
Wind 5 kt uit het oosten

TAF: OMSJ 232256Z 2400/2506 08005KT 4000 BR NSC BECMG 2405/2407 8000 NSW BECMG 2409/2411 35010KT BECMG 2415/2417 09005KT

Waarnemingen en weersverwachtingen van meer dan 4000 vliegvelden (METAR en TAF).

De beschikbare stations zijn de gele en rode punten op de kaart.

Ga met uw muis naar het station om de naam te zien.

Klik dan om waarnemingen en weersverwachtingen te zien.

kaart wijzigen: klik op de groene knoppen met een zwart kruis om in te zoomen, op de groene knop met een streepje om uit te zoomen of op de groene pijlen voor aangrenzende kaarten.


METAR-TAF: